sensor_id;sensor_type;location;lat;lon;timestamp;pressure;altitude;pressure_sealevel;temperature;humidity
38225;BME280;24025;48.138;11.428;2023-01-08T00:21:24;95106.50;;;2.84;77.95
38225;BME280;24025;48.138;11.428;2023-01-08T00:23:55;95098.94;;;2.83;78.78
38225;BME280;24025;48.138;11.428;2023-01-08T00:26:25;95098.47;;;2.81;77.95
38225;BME280;24025;48.138;11.428;2023-01-08T00:28:56;95088.78;;;2.73;78.94
38225;BME280;24025;48.138;11.428;2023-01-08T00:31:26;95092.00;;;2.78;78.32
38225;BME280;24025;48.138;11.428;2023-01-08T00:33:56;95090.47;;;2.77;78.02
38225;BME280;24025;48.138;11.428;2023-01-08T00:36:27;95094.97;;;2.77;77.92
38225;BME280;24025;48.138;11.428;2023-01-08T00:38:58;95093.59;;;2.71;77.94
38225;BME280;24025;48.138;11.428;2023-01-08T00:41:29;95090.00;;;2.75;77.71
38225;BME280;24025;48.138;11.428;2023-01-08T00:43:59;95084.75;;;2.75;77.42
38225;BME280;24025;48.138;11.428;2023-01-08T00:46:29;95079.47;;;2.75;77.54
38225;BME280;24025;48.138;11.428;2023-01-08T00:49:00;95088.91;;;2.76;77.87
38225;BME280;24025;48.138;11.428;2023-01-08T00:51:30;95089.88;;;2.72;76.86
38225;BME280;24025;48.138;11.428;2023-01-08T00:54:01;95085.78;;;2.62;77.31
38225;BME280;24025;48.138;11.428;2023-01-08T00:56:31;95085.41;;;2.51;77.99
38225;BME280;24025;48.138;11.428;2023-01-08T00:59:02;95080.25;;;2.55;77.31
38225;BME280;24025;48.138;11.428;2023-01-08T01:01:32;95087.25;;;2.51;77.71
38225;BME280;24025;48.138;11.428;2023-01-08T01:04:02;95080.47;;;2.50;77.51
38225;BME280;24025;48.138;11.428;2023-01-08T01:06:33;95093.03;;;2.44;78.71
38225;BME280;24025;48.138;11.428;2023-01-08T01:09:03;95092.91;;;2.41;78.80
38225;BME280;24025;48.138;11.428;2023-01-08T01:11:34;95094.13;;;2.43;79.31
38225;BME280;24025;48.138;11.428;2023-01-08T01:14:04;95094.78;;;2.40;79.82
38225;BME280;24025;48.138;11.428;2023-01-08T01:16:35;95101.56;;;2.41;80.18
38225;BME280;24025;48.138;11.428;2023-01-08T01:19:05;95100.59;;;2.46;79.42
38225;BME280;24025;48.138;11.428;2023-01-08T01:21:35;95101.50;;;2.50;79.74
38225;BME280;24025;48.138;11.428;2023-01-08T01:24:06;95097.91;;;2.54;78.88
38225;BME280;24025;48.138;11.428;2023-01-08T01:26:37;95096.69;;;2.52;79.49
38225;BME280;24025;48.138;11.428;2023-01-08T01:29:07;95089.13;;;2.50;78.71
38225;BME280;24025;48.138;11.428;2023-01-08T01:31:37;95084.94;;;2.49;78.33
38225;BME280;24025;48.138;11.428;2023-01-08T01:34:09;95082.81;;;2.43;79.09
38225;BME280;24025;48.138;11.428;2023-01-08T01:36:39;95083.72;;;2.47;78.29
38225;BME280;24025;48.138;11.428;2023-01-08T01:39:09;95075.88;;;2.38;78.22
38225;BME280;24025;48.138;11.428;2023-01-08T01:41:43;95088.09;;;2.43;77.32
38225;BME280;24025;48.138;11.428;2023-01-08T01:44:34;95091.66;;;2.38;78.46
38225;BME280;24025;48.138;11.428;2023-01-08T01:47:25;95091.38;;;2.40;77.92
38225;BME280;24025;48.138;11.428;2023-01-08T01:52:59;95066.44;;;2.37;77.91
38225;BME280;24025;48.138;11.428;2023-01-08T01:55:32;95063.06;;;2.37;77.52
38225;BME280;24025;48.138;11.428;2023-01-08T02:00:37;95063.88;;;2.28;78.09
38225;BME280;24025;48.138;11.428;2023-01-08T02:03:09;95062.03;;;2.29;78.30
38225;BME280;24025;48.138;11.428;2023-01-08T02:11:06;95056.81;;;2.20;77.51
38225;BME280;24025;48.138;11.428;2023-01-08T02:13:39;95051.56;;;2.20;77.80
38225;BME280;24025;48.138;11.428;2023-01-08T02:16:15;95043.88;;;2.15;78.43
38225;BME280;24025;48.138;11.428;2023-01-08T02:18:59;95047.41;;;2.19;77.50
38225;BME280;24025;48.138;11.428;2023-01-08T02:21:42;95048.81;;;2.17;77.77
38225;BME280;24025;48.138;11.428;2023-01-08T02:26:58;95029.19;;;2.14;77.55
38225;BME280;24025;48.138;11.428;2023-01-08T02:29:30;95029.03;;;2.11;77.74
38225;BME280;24025;48.138;11.428;2023-01-08T02:32:01;95031.38;;;2.12;77.38
38225;BME280;24025;48.138;11.428;2023-01-08T02:34:32;95027.94;;;2.12;76.99
38225;BME280;24025;48.138;11.428;2023-01-08T02:37:02;95015.13;;;2.10;77.16
38225;BME280;24025;48.138;11.428;2023-01-08T02:39:57;95014.03;;;2.11;77.43
38225;BME280;24025;48.138;11.428;2023-01-08T02:43:06;95020.19;;;1.94;77.99
38225;BME280;24025;48.138;11.428;2023-01-08T02:45:49;95017.03;;;2.01;77.51
38225;BME280;24025;48.138;11.428;2023-01-08T02:48:50;95021.22;;;2.02;77.67
38225;BME280;24025;48.138;11.428;2023-01-08T02:51:27;95022.31;;;2.01;77.93
38225;BME280;24025;48.138;11.428;2023-01-08T02:54:04;95019.41;;;1.94;78.24
38225;BME280;24025;48.138;11.428;2023-01-08T02:56:40;95020.97;;;1.95;78.10
38225;BME280;24025;48.138;11.428;2023-01-08T02:59:13;95013.09;;;1.95;77.81
38225;BME280;24025;48.138;11.428;2023-01-08T03:01:45;95011.41;;;1.90;77.15
38225;BME280;24025;48.138;11.428;2023-01-08T03:04:18;95009.53;;;1.91;77.25
38225;BME280;24025;48.138;11.428;2023-01-08T03:06:51;95004.16;;;1.87;77.51
38225;BME280;24025;48.138;11.428;2023-01-08T03:09:22;95006.63;;;1.84;78.11
38225;BME280;24025;48.138;11.428;2023-01-08T03:12:02;94996.50;;;1.74;78.91
38225;BME280;24025;48.138;11.428;2023-01-08T03:14:46;94983.03;;;1.75;79.21
38225;BME280;24025;48.138;11.428;2023-01-08T03:19:59;94990.75;;;1.80;78.76
38225;BME280;24025;48.138;11.428;2023-01-08T03:22:31;94982.09;;;1.80;78.70
38225;BME280;24025;48.138;11.428;2023-01-08T03:25:04;94983.31;;;1.82;78.54
38225;BME280;24025;48.138;11.428;2023-01-08T03:27:37;94979.25;;;1.85;79.10
38225;BME280;24025;48.138;11.428;2023-01-08T03:30:10;94986.00;;;1.74;78.49
38225;BME280;24025;48.138;11.428;2023-01-08T03:32:42;94983.81;;;1.76;79.29
38225;BME280;24025;48.138;11.428;2023-01-08T03:35:17;94979.66;;;1.75;78.78
38225;BME280;24025;48.138;11.428;2023-01-08T03:37:55;94977.47;;;1.77;78.83
38225;BME280;24025;48.138;11.428;2023-01-08T03:40:30;94973.78;;;1.78;78.64
38225;BME280;24025;48.138;11.428;2023-01-08T03:43:04;94958.13;;;1.81;78.50
38225;BME280;24025;48.138;11.428;2023-01-08T03:45:36;94953.75;;;1.64;79.27
38225;BME280;24025;48.138;11.428;2023-01-08T03:48:06;94955.53;;;1.73;78.99
38225;BME280;24025;48.138;11.428;2023-01-08T03:50:38;94950.03;;;1.65;78.74
38225;BME280;24025;48.138;11.428;2023-01-08T03:53:09;94938.75;;;1.65;79.05
38225;BME280;24025;48.138;11.428;2023-01-08T03:55:39;94932.28;;;1.62;79.13
38225;BME280;24025;48.138;11.428;2023-01-08T03:58:10;94936.56;;;1.67;79.56
38225;BME280;24025;48.138;11.428;2023-01-08T04:00:40;94929.78;;;1.66;79.46
38225;BME280;24025;48.138;11.428;2023-01-08T04:03:10;94926.97;;;1.71;79.40
38225;BME280;24025;48.138;11.428;2023-01-08T04:05:41;94928.63;;;1.76;78.86
38225;BME280;24025;48.138;11.428;2023-01-08T04:08:11;94934.19;;;1.74;79.47
38225;BME280;24025;48.138;11.428;2023-01-08T04:10:42;94927.09;;;1.75;79.27
38225;BME280;24025;48.138;11.428;2023-01-08T04:13:12;94928.00;;;1.79;78.59
38225;BME280;24025;48.138;11.428;2023-01-08T04:15:49;94932.47;;;1.78;78.55
38225;BME280;24025;48.138;11.428;2023-01-08T04:18:20;94933.75;;;1.72;78.29
38225;BME280;24025;48.138;11.428;2023-01-08T04:20:50;94926.91;;;1.80;78.35
38225;BME280;24025;48.138;11.428;2023-01-08T04:23:20;94919.34;;;1.78;78.24
38225;BME280;24025;48.138;11.428;2023-01-08T04:25:51;94923.19;;;1.81;78.24
38225;BME280;24025;48.138;11.428;2023-01-08T04:28:22;94925.50;;;1.82;78.36
38225;BME280;24025;48.138;11.428;2023-01-08T04:30:53;94916.41;;;1.80;78.51
38225;BME280;24025;48.138;11.428;2023-01-08T04:33:24;94911.13;;;1.80;78.46
38225;BME280;24025;48.138;11.428;2023-01-08T04:35:54;94910.94;;;1.85;78.15
38225;BME280;24025;48.138;11.428;2023-01-08T04:38:25;94909.94;;;1.77;78.59
38225;BME280;24025;48.138;11.428;2023-01-08T04:40:56;94906.81;;;1.75;78.51
38225;BME280;24025;48.138;11.428;2023-01-08T04:43:28;94902.56;;;1.70;78.92
38225;BME280;24025;48.138;11.428;2023-01-08T04:46:00;94898.72;;;1.68;78.65
38225;BME280;24025;48.138;11.428;2023-01-08T04:48:32;94896.25;;;1.63;79.80
38225;BME280;24025;48.138;11.428;2023-01-08T04:51:03;94884.28;;;1.53;80.37
38225;BME280;24025;48.138;11.428;2023-01-08T04:53:35;94896.00;;;1.56;79.53
38225;BME280;24025;48.138;11.428;2023-01-08T04:56:09;94895.81;;;1.61;80.12
38225;BME280;24025;48.138;11.428;2023-01-08T04:58:40;94894.06;;;1.65;79.53
38225;BME280;24025;48.138;11.428;2023-01-08T05:01:13;94890.50;;;1.69;79.25
38225;BME280;24025;48.138;11.428;2023-01-08T05:03:45;94890.03;;;1.67;78.91
38225;BME280;24025;48.138;11.428;2023-01-08T05:06:15;94901.00;;;1.69;79.36
38225;BME280;24025;48.138;11.428;2023-01-08T05:08:46;94905.34;;;1.65;79.15
38225;BME280;24025;48.138;11.428;2023-01-08T05:11:16;94899.41;;;1.77;78.14
38225;BME280;24025;48.138;11.428;2023-01-08T05:13:48;94899.09;;;1.79;78.17
38225;BME280;24025;48.138;11.428;2023-01-08T05:16:18;94895.69;;;1.78;78.24
38225;BME280;24025;48.138;11.428;2023-01-08T05:18:49;94890.88;;;1.80;78.85
38225;BME280;24025;48.138;11.428;2023-01-08T05:21:20;94886.22;;;1.86;78.11
38225;BME280;24025;48.138;11.428;2023-01-08T05:23:50;94884.97;;;1.83;77.49
38225;BME280;24025;48.138;11.428;2023-01-08T05:26:20;94875.56;;;1.82;78.27
38225;BME280;24025;48.138;11.428;2023-01-08T05:28:51;94881.91;;;1.81;78.69
38225;BME280;24025;48.138;11.428;2023-01-08T05:31:22;94880.47;;;1.84;78.28
38225;BME280;24025;48.138;11.428;2023-01-08T05:33:52;94875.44;;;1.79;78.69
38225;BME280;24025;48.138;11.428;2023-01-08T05:36:22;94875.56;;;1.82;77.80
38225;BME280;24025;48.138;11.428;2023-01-08T05:38:53;94878.94;;;1.83;77.85
38225;BME280;24025;48.138;11.428;2023-01-08T05:41:24;94882.66;;;1.82;77.36
38225;BME280;24025;48.138;11.428;2023-01-08T05:43:54;94881.78;;;1.78;77.56
38225;BME280;24025;48.138;11.428;2023-01-08T05:46:25;94886.91;;;1.74;77.84
38225;BME280;24025;48.138;11.428;2023-01-08T05:48:56;94878.56;;;1.72;77.56
38225;BME280;24025;48.138;11.428;2023-01-08T05:51:26;94876.13;;;1.67;78.01
38225;BME280;24025;48.138;11.428;2023-01-08T05:53:57;94880.69;;;1.79;78.40
38225;BME280;24025;48.138;11.428;2023-01-08T05:56:27;94881.91;;;1.81;77.55
38225;BME280;24025;48.138;11.428;2023-01-08T05:58:58;94889.78;;;1.81;78.01
38225;BME280;24025;48.138;11.428;2023-01-08T06:01:28;94887.75;;;1.87;78.08
38225;BME280;24025;48.138;11.428;2023-01-08T06:03:58;94886.31;;;1.89;77.31
38225;BME280;24025;48.138;11.428;2023-01-08T06:06:29;94887.53;;;1.92;78.15
38225;BME280;24025;48.138;11.428;2023-01-08T06:08:59;94887.19;;;1.93;78.16
38225;BME280;24025;48.138;11.428;2023-01-08T06:11:29;94890.16;;;1.92;77.98
38225;BME280;24025;48.138;11.428;2023-01-08T06:14:00;94891.25;;;1.91;77.77
38225;BME280;24025;48.138;11.428;2023-01-08T06:16:30;94897.59;;;1.90;78.26
38225;BME280;24025;48.138;11.428;2023-01-08T06:19:01;94896.25;;;1.84;78.61
38225;BME280;24025;48.138;11.428;2023-01-08T06:21:31;94885.66;;;1.92;78.18
38225;BME280;24025;48.138;11.428;2023-01-08T06:24:02;94886.44;;;1.93;77.69
38225;BME280;24025;48.138;11.428;2023-01-08T06:26:32;94888.75;;;1.94;77.84
38225;BME280;24025;48.138;11.428;2023-01-08T06:29:02;94894.66;;;1.91;78.32
38225;BME280;24025;48.138;11.428;2023-01-08T06:31:33;94886.91;;;1.95;78.58
38225;BME280;24025;48.138;11.428;2023-01-08T06:34:03;94883.50;;;1.94;78.98
38225;BME280;24025;48.138;11.428;2023-01-08T06:36:34;94889.19;;;1.96;78.91
38225;BME280;24025;48.138;11.428;2023-01-08T06:39:05;94898.28;;;1.99;78.21
38225;BME280;24025;48.138;11.428;2023-01-08T06:41:36;94897.53;;;1.98;78.06
38225;BME280;24025;48.138;11.428;2023-01-08T06:44:06;94886.44;;;1.93;78.51
38225;BME280;24025;48.138;11.428;2023-01-08T06:46:36;94893.22;;;1.94;79.14
38225;BME280;24025;48.138;11.428;2023-01-08T06:49:09;94901.44;;;1.92;77.97
38225;BME280;24025;48.138;11.428;2023-01-08T06:51:39;94895.66;;;1.99;78.56
38225;BME280;24025;48.138;11.428;2023-01-08T06:54:09;94899.50;;;2.02;78.62
38225;BME280;24025;48.138;11.428;2023-01-08T06:56:40;94898.56;;;2.06;78.19
38225;BME280;24025;48.138;11.428;2023-01-08T06:59:10;94893.16;;;2.03;78.96
38225;BME280;24025;48.138;11.428;2023-01-08T07:01:41;94899.44;;;2.10;78.30
38225;BME280;24025;48.138;11.428;2023-01-08T07:04:11;94898.66;;;2.10;78.75
38225;BME280;24025;48.138;11.428;2023-01-08T07:06:41;94902.53;;;2.12;79.20
38225;BME280;24025;48.138;11.428;2023-01-08T07:09:13;94904.81;;;2.14;78.76
38225;BME280;24025;48.138;11.428;2023-01-08T07:11:43;94904.59;;;2.19;78.72
38225;BME280;24025;48.138;11.428;2023-01-08T07:14:14;94914.50;;;2.22;78.80
38225;BME280;24025;48.138;11.428;2023-01-08T07:16:44;94908.91;;;2.23;78.84
38225;BME280;24025;48.138;11.428;2023-01-08T07:19:15;94909.78;;;2.27;78.37
38225;BME280;24025;48.138;11.428;2023-01-08T07:21:45;94911.91;;;2.34;78.19
38225;BME280;24025;48.138;11.428;2023-01-08T07:24:16;94904.88;;;2.38;78.10
38225;BME280;24025;48.138;11.428;2023-01-08T07:26:46;94895.03;;;2.35;78.80
38225;BME280;24025;48.138;11.428;2023-01-08T07:29:16;94891.06;;;2.29;78.93
38225;BME280;24025;48.138;11.428;2023-01-08T07:31:47;94897.53;;;2.32;78.68
38225;BME280;24025;48.138;11.428;2023-01-08T07:34:17;94892.28;;;2.32;79.41
38225;BME280;24025;48.138;11.428;2023-01-08T07:36:47;94891.06;;;2.29;79.00
38225;BME280;24025;48.138;11.428;2023-01-08T07:39:18;94900.94;;;2.32;78.59
38225;BME280;24025;48.138;11.428;2023-01-08T07:41:48;94901.19;;;2.39;78.22
38225;BME280;24025;48.138;11.428;2023-01-08T07:44:19;94901.28;;;2.43;78.36
38225;BME280;24025;48.138;11.428;2023-01-08T07:46:49;94896.03;;;2.43;79.42
38225;BME280;24025;48.138;11.428;2023-01-08T07:49:19;94892.09;;;2.49;78.87
38225;BME280;24025;48.138;11.428;2023-01-08T07:51:50;94887.38;;;2.54;79.26
38225;BME280;24025;48.138;11.428;2023-01-08T07:54:20;94880.41;;;2.59;79.22
38225;BME280;24025;48.138;11.428;2023-01-08T07:56:53;94881.25;;;2.63;79.00
38225;BME280;24025;48.138;11.428;2023-01-08T07:59:23;94867.78;;;2.64;78.19
38225;BME280;24025;48.138;11.428;2023-01-08T08:01:54;94878.09;;;2.69;78.31
38225;BME280;24025;48.138;11.428;2023-01-08T08:04:24;94878.53;;;2.71;79.05
38225;BME280;24025;48.138;11.428;2023-01-08T08:06:55;94874.94;;;2.76;78.70
38225;BME280;24025;48.138;11.428;2023-01-08T08:09:25;94887.53;;;2.82;78.42
38225;BME280;24025;48.138;11.428;2023-01-08T08:11:55;94886.66;;;2.91;79.13
38225;BME280;24025;48.138;11.428;2023-01-08T08:14:26;94893.91;;;2.94;77.53
38225;BME280;24025;48.138;11.428;2023-01-08T08:16:56;94896.78;;;3.01;77.01
38225;BME280;24025;48.138;11.428;2023-01-08T08:19:27;94902.69;;;2.98;75.88
38225;BME280;24025;48.138;11.428;2023-01-08T08:21:57;94907.22;;;3.09;75.88
38225;BME280;24025;48.138;11.428;2023-01-08T08:24:27;94904.00;;;3.16;75.44
38225;BME280;24025;48.138;11.428;2023-01-08T08:26:58;94901.03;;;3.18;73.95
38225;BME280;24025;48.138;11.428;2023-01-08T08:29:28;94897.22;;;3.27;73.28
38225;BME280;24025;48.138;11.428;2023-01-08T08:31:59;94895.66;;;3.38;74.49
38225;BME280;24025;48.138;11.428;2023-01-08T08:34:29;94886.53;;;3.48;73.17
38225;BME280;24025;48.138;11.428;2023-01-08T08:36:59;94890.56;;;3.58;74.09
38225;BME280;24025;48.138;11.428;2023-01-08T08:39:30;94885.19;;;3.66;74.06
38225;BME280;24025;48.138;11.428;2023-01-08T08:42:00;94894.41;;;3.73;74.54
38225;BME280;24025;48.138;11.428;2023-01-08T08:44:30;94903.94;;;3.77;74.29
38225;BME280;24025;48.138;11.428;2023-01-08T08:47:01;94891.28;;;3.83;73.64
38225;BME280;24025;48.138;11.428;2023-01-08T08:49:31;94894.44;;;3.88;73.45
38225;BME280;24025;48.138;11.428;2023-01-08T08:52:05;94893.53;;;3.96;72.34
38225;BME280;24025;48.138;11.428;2023-01-08T08:54:35;94889.16;;;4.01;71.96
38225;BME280;24025;48.138;11.428;2023-01-08T08:57:10;94877.78;;;4.12;72.81
38225;BME280;24025;48.138;11.428;2023-01-08T08:59:41;94878.38;;;4.21;72.11
38225;BME280;24025;48.138;11.428;2023-01-08T09:02:12;94882.41;;;4.31;73.17
38225;BME280;24025;48.138;11.428;2023-01-08T09:04:42;94890.16;;;4.40;74.22
38225;BME280;24025;48.138;11.428;2023-01-08T09:07:13;94890.38;;;4.47;73.69
38225;BME280;24025;48.138;11.428;2023-01-08T09:09:43;94902.72;;;4.59;73.57
38225;BME280;24025;48.138;11.428;2023-01-08T09:12:13;94906.56;;;4.61;73.65
38225;BME280;24025;48.138;11.428;2023-01-08T09:14:44;94902.91;;;4.66;73.96
38225;BME280;24025;48.138;11.428;2023-01-08T09:17:14;94909.47;;;4.72;74.02
38225;BME280;24025;48.138;11.428;2023-01-08T09:19:45;94899.69;;;4.72;73.24
38225;BME280;24025;48.138;11.428;2023-01-08T09:22:15;94906.16;;;4.75;73.99
38225;BME280;24025;48.138;11.428;2023-01-08T09:24:46;94907.78;;;4.79;74.78
38225;BME280;24025;48.138;11.428;2023-01-08T09:27:16;94911.63;;;4.82;74.23
38225;BME280;24025;48.138;11.428;2023-01-08T09:29:46;94913.66;;;4.89;74.25
38225;BME280;24025;48.138;11.428;2023-01-08T09:32:17;94910.09;;;4.97;74.16
38225;BME280;24025;48.138;11.428;2023-01-08T09:34:47;94910.00;;;5.09;73.88
38225;BME280;24025;48.138;11.428;2023-01-08T09:37:18;94909.13;;;5.21;73.88
38225;BME280;24025;48.138;11.428;2023-01-08T09:39:49;94905.97;;;5.31;72.13
38225;BME280;24025;48.138;11.428;2023-01-08T09:42:22;94913.81;;;5.43;72.03
38225;BME280;24025;48.138;11.428;2023-01-08T09:44:54;94904.72;;;5.60;70.17
38225;BME280;24025;48.138;11.428;2023-01-08T09:47:33;94901.00;;;5.80;70.08
38225;BME280;24025;48.138;11.428;2023-01-08T09:50:11;94881.75;;;5.99;69.08
38225;BME280;24025;48.138;11.428;2023-01-08T09:52:42;94874.09;;;6.13;68.43
38225;BME280;24025;48.138;11.428;2023-01-08T09:55:14;94867.97;;;6.29;67.66
38225;BME280;24025;48.138;11.428;2023-01-08T09:57:46;94864.03;;;6.42;67.11
38225;BME280;24025;48.138;11.428;2023-01-08T10:00:21;94855.50;;;6.52;66.77
38225;BME280;24025;48.138;11.428;2023-01-08T10:02:53;94848.09;;;6.61;65.53
38225;BME280;24025;48.138;11.428;2023-01-08T10:05:25;94850.94;;;6.72;65.63
38225;BME280;24025;48.138;11.428;2023-01-08T10:07:57;94853.28;;;6.77;65.09
38225;BME280;24025;48.138;11.428;2023-01-08T10:10:29;94863.28;;;6.87;64.59
38225;BME280;24025;48.138;11.428;2023-01-08T10:13:00;94860.88;;;7.01;64.25
38225;BME280;24025;48.138;11.428;2023-01-08T10:15:31;94858.13;;;7.21;63.86
38225;BME280;24025;48.138;11.428;2023-01-08T10:18:03;94868.25;;;7.42;63.05
38225;BME280;24025;48.138;11.428;2023-01-08T10:20:35;94858.63;;;7.56;61.90
38225;BME280;24025;48.138;11.428;2023-01-08T10:23:18;94849.09;;;7.82;61.86
38225;BME280;24025;48.138;11.428;2023-01-08T10:25:53;94847.09;;;8.05;60.28
38225;BME280;24025;48.138;11.428;2023-01-08T10:28:26;94857.63;;;8.32;57.82
38225;BME280;24025;48.138;11.428;2023-01-08T10:31:23;94852.88;;;8.48;56.92
38225;BME280;24025;48.138;11.428;2023-01-08T10:33:54;94838.97;;;8.58;56.91
38225;BME280;24025;48.138;11.428;2023-01-08T10:36:24;94835.16;;;8.59;56.85
38225;BME280;24025;48.138;11.428;2023-01-08T10:38:58;94844.66;;;8.60;56.64
38225;BME280;24025;48.138;11.428;2023-01-08T10:41:30;94832.06;;;8.54;56.50
38225;BME280;24025;48.138;11.428;2023-01-08T10:44:14;94828.63;;;8.49;56.73
38225;BME280;24025;48.138;11.428;2023-01-08T10:46:47;94841.03;;;8.38;56.66
38225;BME280;24025;48.138;11.428;2023-01-08T10:49:26;94839.34;;;8.27;56.95
38225;BME280;24025;48.138;11.428;2023-01-08T10:51:58;94843.75;;;8.12;56.75
38225;BME280;24025;48.138;11.428;2023-01-08T10:54:37;94838.59;;;7.92;57.36
38225;BME280;24025;48.138;11.428;2023-01-08T10:57:29;94848.31;;;7.78;57.37
38225;BME280;24025;48.138;11.428;2023-01-08T11:00:01;94845.56;;;7.71;57.05
38225;BME280;24025;48.138;11.428;2023-01-08T11:02:36;94847.97;;;7.53;58.14
38225;BME280;24025;48.138;11.428;2023-01-08T11:05:08;94839.56;;;7.47;59.27
38225;BME280;24025;48.138;11.428;2023-01-08T11:07:40;94844.09;;;7.47;59.70
38225;BME280;24025;48.138;11.428;2023-01-08T11:10:22;94850.16;;;7.47;58.62
38225;BME280;24025;48.138;11.428;2023-01-08T11:12:59;94844.47;;;7.45;59.45
38225;BME280;24025;48.138;11.428;2023-01-08T11:15:36;94843.72;;;7.48;59.08
38225;BME280;24025;48.138;11.428;2023-01-08T11:18:22;94831.22;;;7.49;58.77
38225;BME280;24025;48.138;11.428;2023-01-08T11:21:09;94799.88;;;7.58;59.76
38225;BME280;24025;48.138;11.428;2023-01-08T11:23:46;94771.19;;;7.67;58.79
38225;BME280;24025;48.138;11.428;2023-01-08T11:26:20;94769.47;;;7.82;58.15
38225;BME280;24025;48.138;11.428;2023-01-08T11:37:34;94765.88;;;8.38;55.98
38225;BME280;24025;48.138;11.428;2023-01-08T11:40:15;94767.91;;;8.51;56.92
38225;BME280;24025;48.138;11.428;2023-01-08T11:45:51;94749.06;;;8.67;56.50
38225;BME280;24025;48.138;11.428;2023-01-08T11:53:50;94745.72;;;8.77;55.96
38225;BME280;24025;48.138;11.428;2023-01-08T11:59:52;94750.13;;;8.59;55.66
38225;BME280;24025;48.138;11.428;2023-01-08T12:10:48;94746.47;;;8.34;55.29
38225;BME280;24025;48.138;11.428;2023-01-08T12:22:33;94732.00;;;8.28;56.51
38225;BME280;24025;48.138;11.428;2023-01-08T12:28:16;94733.44;;;8.21;57.24
38225;BME280;24025;48.138;11.428;2023-01-08T12:31:14;94726.22;;;8.18;57.86
38225;BME280;24025;48.138;11.428;2023-01-08T12:33:53;94713.31;;;8.17;59.06
38225;BME280;24025;48.138;11.428;2023-01-08T12:36:35;94697.00;;;8.18;59.01
38225;BME280;24025;48.138;11.428;2023-01-08T12:39:24;94692.06;;;8.17;59.41
38225;BME280;24025;48.138;11.428;2023-01-08T12:42:11;94687.91;;;8.16;59.42
38225;BME280;24025;48.138;11.428;2023-01-08T12:44:44;94673.47;;;8.13;58.79
38225;BME280;24025;48.138;11.428;2023-01-08T12:47:18;94678.03;;;8.13;58.58
38225;BME280;24025;48.138;11.428;2023-01-08T12:49:59;94664.31;;;8.11;58.58
38225;BME280;24025;48.138;11.428;2023-01-08T12:53:11;94659.38;;;8.06;60.44
38225;BME280;24025;48.138;11.428;2023-01-08T12:56:10;94662.41;;;8.04;59.30
38225;BME280;24025;48.138;11.428;2023-01-08T12:59:02;94672.59;;;8.02;59.90
38225;BME280;24025;48.138;11.428;2023-01-08T13:01:40;94668.41;;;7.98;59.26
38225;BME280;24025;48.138;11.428;2023-01-08T13:04:12;94674.84;;;7.97;58.88
38225;BME280;24025;48.138;11.428;2023-01-08T13:07:11;94675.97;;;7.95;58.82
38225;BME280;24025;48.138;11.428;2023-01-08T13:09:54;94679.34;;;7.92;59.13
38225;BME280;24025;48.138;11.428;2023-01-08T13:12:34;94666.06;;;7.92;59.71
38225;BME280;24025;48.138;11.428;2023-01-08T13:15:19;94664.53;;;7.91;60.80
38225;BME280;24025;48.138;11.428;2023-01-08T13:17:53;94662.16;;;7.79;59.58
38225;BME280;24025;48.138;11.428;2023-01-08T13:20:28;94658.75;;;7.79;59.86
38225;BME280;24025;48.138;11.428;2023-01-08T13:23:04;94656.88;;;7.83;59.63
38225;BME280;24025;48.138;11.428;2023-01-08T13:25:36;94645.91;;;7.84;61.17
38225;BME280;24025;48.138;11.428;2023-01-08T13:33:51;94628.06;;;7.81;61.75
38225;BME280;24025;48.138;11.428;2023-01-08T13:36:29;94622.38;;;7.79;63.78
38225;BME280;24025;48.138;11.428;2023-01-08T13:42:16;94616.63;;;7.77;65.03
38225;BME280;24025;48.138;11.428;2023-01-08T13:44:38;94615.53;;;7.78;64.51
38225;BME280;24025;48.138;11.428;2023-01-08T13:47:26;94609.03;;;7.76;63.09
38225;BME280;24025;48.138;11.428;2023-01-08T13:50:01;94606.00;;;7.74;64.46
38225;BME280;24025;48.138;11.428;2023-01-08T13:52:44;94606.00;;;7.74;64.96
38225;BME280;24025;48.138;11.428;2023-01-08T13:55:15;94604.84;;;7.71;64.40
38225;BME280;24025;48.138;11.428;2023-01-08T13:57:57;94592.66;;;7.66;63.25
38225;BME280;24025;48.138;11.428;2023-01-08T14:00:31;94603.72;;;7.72;63.64
38225;BME280;24025;48.138;11.428;2023-01-08T14:06:05;94611.31;;;7.74;63.59
38225;BME280;24025;48.138;11.428;2023-01-08T14:08:36;94617.38;;;7.74;63.58
38225;BME280;24025;48.138;11.428;2023-01-08T14:11:19;94626.09;;;7.75;64.13
38225;BME280;24025;48.138;11.428;2023-01-08T14:13:50;94623.06;;;7.76;65.28
38225;BME280;24025;48.138;11.428;2023-01-08T14:16:21;94622.69;;;7.74;64.82
38225;BME280;24025;48.138;11.428;2023-01-08T14:18:54;94624.59;;;7.77;64.51
38225;BME280;24025;48.138;11.428;2023-01-08T14:21:28;94619.72;;;7.79;65.44
38225;BME280;24025;48.138;11.428;2023-01-08T14:23:59;94618.19;;;7.82;65.87
38225;BME280;24025;48.138;11.428;2023-01-08T14:26:36;94623.13;;;7.83;65.40
38225;BME280;24025;48.138;11.428;2023-01-08T14:29:15;94629.59;;;7.86;63.08
38225;BME280;24025;48.138;11.428;2023-01-08T14:31:53;94634.56;;;7.87;63.10
38225;BME280;24025;48.138;11.428;2023-01-08T14:34:25;94620.16;;;7.88;65.58
38225;BME280;24025;48.138;11.428;2023-01-08T14:36:57;94618.63;;;7.87;65.85
38225;BME280;24025;48.138;11.428;2023-01-08T14:39:34;94615.22;;;7.87;65.98
38225;BME280;24025;48.138;11.428;2023-01-08T14:42:16;94620.84;;;7.78;64.02
38225;BME280;24025;48.138;11.428;2023-01-08T14:47:45;94614.41;;;7.79;65.51
38225;BME280;24025;48.138;11.428;2023-01-08T14:50:31;94602.25;;;7.78;66.64
38225;BME280;24025;48.138;11.428;2023-01-08T14:53:27;94614.41;;;7.79;65.82
38225;BME280;24025;48.138;11.428;2023-01-08T14:55:59;94624.66;;;7.81;65.14
38225;BME280;24025;48.138;11.428;2023-01-08T14:58:39;94613.22;;;7.77;64.41
38225;BME280;24025;48.138;11.428;2023-01-08T15:01:16;94602.25;;;7.78;65.67
38225;BME280;24025;48.138;11.428;2023-01-08T15:03:48;94611.69;;;7.76;64.99
38225;BME280;24025;48.138;11.428;2023-01-08T15:06:24;94606.03;;;7.77;65.27